sensor_id;sensor_type;location;lat;lon;timestamp;P1;durP1;ratioP1;P2;durP2;ratioP2
76357;SDS011;65185;21.060;105.826;2023-03-21T00:02:04;66.82;;;39.25;;
76357;SDS011;65185;21.060;105.826;2023-03-21T00:04:30;65.60;;;39.10;;
76357;SDS011;65185;21.060;105.826;2023-03-21T00:07:09;67.40;;;39.45;;
76357;SDS011;65185;21.060;105.826;2023-03-21T00:09:35;66.47;;;39.13;;
76357;SDS011;65185;21.060;105.826;2023-03-21T00:12:02;68.22;;;39.15;;
76357;SDS011;65185;21.060;105.826;2023-03-21T00:14:31;65.72;;;39.33;;
76357;SDS011;65185;21.060;105.826;2023-03-21T00:16:58;66.18;;;38.78;;
76357;SDS011;65185;21.060;105.826;2023-03-21T00:19:24;77.80;;;42.75;;
76357;SDS011;65185;21.060;105.826;2023-03-21T00:21:53;81.85;;;45.13;;
76357;SDS011;65185;21.060;105.826;2023-03-21T00:24:20;80.50;;;43.85;;
76357;SDS011;65185;21.060;105.826;2023-03-21T00:26:47;75.03;;;44.97;;
76357;SDS011;65185;21.060;105.826;2023-03-21T00:29:14;82.60;;;45.90;;
76357;SDS011;65185;21.060;105.826;2023-03-21T00:31:41;86.78;;;46.22;;
76357;SDS011;65185;21.060;105.826;2023-03-21T00:34:08;81.75;;;46.88;;
76357;SDS011;65185;21.060;105.826;2023-03-21T00:36:34;81.95;;;47.10;;
76357;SDS011;65185;21.060;105.826;2023-03-21T00:39:01;82.50;;;46.60;;
76357;SDS011;65185;21.060;105.826;2023-03-21T00:41:30;79.63;;;45.65;;
76357;SDS011;65185;21.060;105.826;2023-03-21T00:43:57;79.57;;;45.90;;
76357;SDS011;65185;21.060;105.826;2023-03-21T00:46:23;89.82;;;49.30;;
76357;SDS011;65185;21.060;105.826;2023-03-21T00:48:49;81.35;;;47.58;;
76357;SDS011;65185;21.060;105.826;2023-03-21T00:51:20;82.60;;;47.33;;
76357;SDS011;65185;21.060;105.826;2023-03-21T00:53:54;82.43;;;47.53;;
76357;SDS011;65185;21.060;105.826;2023-03-21T00:56:21;81.22;;;46.60;;
76357;SDS011;65185;21.060;105.826;2023-03-21T00:58:48;77.55;;;44.80;;
76357;SDS011;65185;21.060;105.826;2023-03-21T01:01:15;80.72;;;44.55;;
76357;SDS011;65185;21.060;105.826;2023-03-21T01:03:43;76.38;;;45.83;;
76357;SDS011;65185;21.060;105.826;2023-03-21T01:06:15;72.93;;;42.33;;
76357;SDS011;65185;21.060;105.826;2023-03-21T01:08:44;72.45;;;43.35;;
76357;SDS011;65185;21.060;105.826;2023-03-21T01:11:13;76.07;;;42.38;;
76357;SDS011;65185;21.060;105.826;2023-03-21T01:13:50;77.78;;;43.70;;
76357;SDS011;65185;21.060;105.826;2023-03-21T01:16:17;70.38;;;40.95;;
76357;SDS011;65185;21.060;105.826;2023-03-21T01:18:43;76.43;;;42.47;;
76357;SDS011;65185;21.060;105.826;2023-03-21T01:21:11;71.00;;;41.28;;
76357;SDS011;65185;21.060;105.826;2023-03-21T01:23:40;67.47;;;40.10;;
76357;SDS011;65185;21.060;105.826;2023-03-21T01:26:08;63.47;;;37.40;;
76357;SDS011;65185;21.060;105.826;2023-03-21T01:28:36;65.78;;;38.45;;
76357;SDS011;65185;21.060;105.826;2023-03-21T01:31:04;65.65;;;39.25;;
76357;SDS011;65185;21.060;105.826;2023-03-21T01:33:31;73.30;;;40.10;;
76357;SDS011;65185;21.060;105.826;2023-03-21T01:35:58;68.28;;;40.45;;
76357;SDS011;65185;21.060;105.826;2023-03-21T01:38:25;64.35;;;38.70;;
76357;SDS011;65185;21.060;105.826;2023-03-21T01:40:52;68.57;;;41.00;;
76357;SDS011;65185;21.060;105.826;2023-03-21T01:48:47;51.75;;;33.75;;
76357;SDS011;65185;21.060;105.826;2023-03-21T01:51:41;66.57;;;38.95;;
76357;SDS011;65185;21.060;105.826;2023-03-21T01:54:22;63.30;;;39.40;;
76357;SDS011;65185;21.060;105.826;2023-03-21T01:56:53;58.25;;;37.97;;
76357;SDS011;65185;21.060;105.826;2023-03-21T01:59:23;65.35;;;39.63;;
76357;SDS011;65185;21.060;105.826;2023-03-21T02:01:56;67.20;;;40.33;;
76357;SDS011;65185;21.060;105.826;2023-03-21T02:04:32;62.88;;;37.95;;
76357;SDS011;65185;21.060;105.826;2023-03-21T02:07:08;64.75;;;39.30;;
76357;SDS011;65185;21.060;105.826;2023-03-21T02:09:44;63.03;;;37.45;;
76357;SDS011;65185;21.060;105.826;2023-03-21T02:12:13;56.95;;;37.22;;
76357;SDS011;65185;21.060;105.826;2023-03-21T02:14:40;64.63;;;40.63;;
76357;SDS011;65185;21.060;105.826;2023-03-21T02:17:11;67.78;;;41.60;;
76357;SDS011;65185;21.060;105.826;2023-03-21T02:23:07;61.65;;;36.30;;
76357;SDS011;65185;21.060;105.826;2023-03-21T02:25:51;59.30;;;37.35;;
76357;SDS011;65185;21.060;105.826;2023-03-21T02:28:46;66.68;;;39.72;;
76357;SDS011;65185;21.060;105.826;2023-03-21T02:37:10;60.88;;;37.05;;
76357;SDS011;65185;21.060;105.826;2023-03-21T02:40:27;58.67;;;35.88;;
76357;SDS011;65185;21.060;105.826;2023-03-21T02:45:38;51.78;;;32.42;;
76357;SDS011;65185;21.060;105.826;2023-03-21T02:48:28;49.38;;;29.27;;
76357;SDS011;65185;21.060;105.826;2023-03-21T02:51:00;52.72;;;32.65;;
76357;SDS011;65185;21.060;105.826;2023-03-21T02:53:31;52.38;;;33.33;;
76357;SDS011;65185;21.060;105.826;2023-03-21T02:56:02;51.17;;;32.60;;
76357;SDS011;65185;21.060;105.826;2023-03-21T02:58:34;58.08;;;35.88;;
76357;SDS011;65185;21.060;105.826;2023-03-21T03:01:03;50.88;;;31.98;;
76357;SDS011;65185;21.060;105.826;2023-03-21T03:03:33;58.05;;;33.22;;
76357;SDS011;65185;21.060;105.826;2023-03-21T03:06:07;54.13;;;31.65;;
76357;SDS011;65185;21.060;105.826;2023-03-21T03:11:42;51.15;;;31.02;;
76357;SDS011;65185;21.060;105.826;2023-03-21T03:14:21;59.58;;;33.50;;
76357;SDS011;65185;21.060;105.826;2023-03-21T03:19:31;59.35;;;37.53;;
76357;SDS011;65185;21.060;105.826;2023-03-21T03:22:12;57.90;;;37.03;;
76357;SDS011;65185;21.060;105.826;2023-03-21T03:24:48;57.33;;;36.78;;
76357;SDS011;65185;21.060;105.826;2023-03-21T03:27:31;56.83;;;35.17;;
76357;SDS011;65185;21.060;105.826;2023-03-21T03:30:02;54.78;;;35.38;;
76357;SDS011;65185;21.060;105.826;2023-03-21T03:32:41;49.65;;;31.67;;
76357;SDS011;65185;21.060;105.826;2023-03-21T03:35:14;57.80;;;35.05;;
76357;SDS011;65185;21.060;105.826;2023-03-21T03:37:47;60.83;;;36.72;;
76357;SDS011;65185;21.060;105.826;2023-03-21T03:40:21;59.83;;;33.97;;
76357;SDS011;65185;21.060;105.826;2023-03-21T03:42:55;56.90;;;34.97;;
76357;SDS011;65185;21.060;105.826;2023-03-21T03:45:29;63.35;;;36.15;;
76357;SDS011;65185;21.060;105.826;2023-03-21T03:48:04;62.28;;;36.63;;
76357;SDS011;65185;21.060;105.826;2023-03-21T03:51:10;64.00;;;37.72;;
76357;SDS011;65185;21.060;105.826;2023-03-21T03:53:43;66.70;;;40.55;;
76357;SDS011;65185;21.060;105.826;2023-03-21T03:56:16;70.85;;;41.47;;
76357;SDS011;65185;21.060;105.826;2023-03-21T03:58:42;74.07;;;42.05;;
76357;SDS011;65185;21.060;105.826;2023-03-21T04:01:09;70.63;;;39.90;;
76357;SDS011;65185;21.060;105.826;2023-03-21T04:03:36;77.60;;;44.40;;
76357;SDS011;65185;21.060;105.826;2023-03-21T04:08:31;77.63;;;42.83;;
76357;SDS011;65185;21.060;105.826;2023-03-21T04:10:57;85.95;;;47.45;;
76357;SDS011;65185;21.060;105.826;2023-03-21T04:13:26;94.72;;;53.15;;
76357;SDS011;65185;21.060;105.826;2023-03-21T04:15:53;87.45;;;53.03;;
76357;SDS011;65185;21.060;105.826;2023-03-21T04:18:20;77.22;;;44.60;;
76357;SDS011;65185;21.060;105.826;2023-03-21T04:20:48;79.72;;;47.03;;
76357;SDS011;65185;21.060;105.826;2023-03-21T04:23:16;91.68;;;53.03;;
76357;SDS011;65185;21.060;105.826;2023-03-21T04:25:46;96.95;;;57.35;;
76357;SDS011;65185;21.060;105.826;2023-03-21T04:28:12;183.13;;;132.57;;
76357;SDS011;65185;21.060;105.826;2023-03-21T04:30:39;96.63;;;60.83;;
76357;SDS011;65185;21.060;105.826;2023-03-21T04:33:06;92.13;;;56.50;;
76357;SDS011;65185;21.060;105.826;2023-03-21T04:35:32;92.68;;;56.45;;
76357;SDS011;65185;21.060;105.826;2023-03-21T04:38:00;89.82;;;54.97;;
76357;SDS011;65185;21.060;105.826;2023-03-21T04:40:27;91.97;;;56.38;;
76357;SDS011;65185;21.060;105.826;2023-03-21T04:42:53;96.38;;;60.30;;
76357;SDS011;65185;21.060;105.826;2023-03-21T04:45:20;260.42;;;195.40;;
76357;SDS011;65185;21.060;105.826;2023-03-21T04:47:46;187.30;;;138.20;;
76357;SDS011;65185;21.060;105.826;2023-03-21T04:50:13;122.38;;;79.88;;
76357;SDS011;65185;21.060;105.826;2023-03-21T04:52:42;299.95;;;204.80;;
76357;SDS011;65185;21.060;105.826;2023-03-21T04:55:09;183.90;;;127.03;;
76357;SDS011;65185;21.060;105.826;2023-03-21T04:57:42;113.55;;;73.78;;
76357;SDS011;65185;21.060;105.826;2023-03-21T05:00:08;117.53;;;73.03;;
76357;SDS011;65185;21.060;105.826;2023-03-21T05:02:36;104.85;;;66.55;;
76357;SDS011;65185;21.060;105.826;2023-03-21T05:05:03;99.63;;;59.10;;
76357;SDS011;65185;21.060;105.826;2023-03-21T05:07:31;97.53;;;59.97;;
76357;SDS011;65185;21.060;105.826;2023-03-21T05:09:57;94.93;;;58.42;;
76357;SDS011;65185;21.060;105.826;2023-03-21T05:12:24;96.03;;;60.38;;
76357;SDS011;65185;21.060;105.826;2023-03-21T05:14:50;89.03;;;54.53;;
76357;SDS011;65185;21.060;105.826;2023-03-21T05:17:17;94.90;;;58.42;;
76357;SDS011;65185;21.060;105.826;2023-03-21T05:19:47;116.97;;;79.40;;
76357;SDS011;65185;21.060;105.826;2023-03-21T05:22:15;146.68;;;102.40;;
76357;SDS011;65185;21.060;105.826;2023-03-21T05:24:43;109.20;;;65.88;;
76357;SDS011;65185;21.060;105.826;2023-03-21T05:27:15;113.60;;;69.13;;
76357;SDS011;65185;21.060;105.826;2023-03-21T05:32:31;134.20;;;82.20;;
76357;SDS011;65185;21.060;105.826;2023-03-21T05:34:58;105.28;;;65.03;;
76357;SDS011;65185;21.060;105.826;2023-03-21T05:37:24;111.88;;;68.43;;
76357;SDS011;65185;21.060;105.826;2023-03-21T05:39:51;105.35;;;63.03;;
76357;SDS011;65185;21.060;105.826;2023-03-21T05:42:18;108.63;;;68.32;;
76357;SDS011;65185;21.060;105.826;2023-03-21T05:44:45;139.43;;;88.13;;
76357;SDS011;65185;21.060;105.826;2023-03-21T05:47:13;116.13;;;73.32;;
76357;SDS011;65185;21.060;105.826;2023-03-21T05:49:41;160.60;;;114.28;;
76357;SDS011;65185;21.060;105.826;2023-03-21T05:52:08;123.93;;;81.45;;
76357;SDS011;65185;21.060;105.826;2023-03-21T05:54:35;94.72;;;60.13;;
76357;SDS011;65185;21.060;105.826;2023-03-21T05:57:03;84.53;;;53.53;;
76357;SDS011;65185;21.060;105.826;2023-03-21T05:59:30;79.78;;;51.42;;
76357;SDS011;65185;21.060;105.826;2023-03-21T06:01:56;82.10;;;51.10;;
76357;SDS011;65185;21.060;105.826;2023-03-21T06:04:23;74.20;;;49.72;;
76357;SDS011;65185;21.060;105.826;2023-03-21T06:06:49;82.88;;;51.75;;
76357;SDS011;65185;21.060;105.826;2023-03-21T06:09:18;78.07;;;49.65;;
76357;SDS011;65185;21.060;105.826;2023-03-21T06:11:46;82.00;;;52.92;;
76357;SDS011;65185;21.060;105.826;2023-03-21T06:16:41;79.82;;;51.75;;
76357;SDS011;65185;21.060;105.826;2023-03-21T06:19:07;77.38;;;49.95;;
76357;SDS011;65185;21.060;105.826;2023-03-21T06:21:34;78.03;;;49.97;;
76357;SDS011;65185;21.060;105.826;2023-03-21T06:24:00;73.85;;;49.60;;
76357;SDS011;65185;21.060;105.826;2023-03-21T06:26:27;76.90;;;50.42;;
76357;SDS011;65185;21.060;105.826;2023-03-21T06:28:54;77.07;;;52.90;;
76357;SDS011;65185;21.060;105.826;2023-03-21T06:31:21;82.70;;;54.35;;
76357;SDS011;65185;21.060;105.826;2023-03-21T06:33:49;82.45;;;57.55;;
76357;SDS011;65185;21.060;105.826;2023-03-21T06:36:16;94.88;;;61.35;;
76357;SDS011;65185;21.060;105.826;2023-03-21T06:38:44;94.72;;;61.35;;
76357;SDS011;65185;21.060;105.826;2023-03-21T06:41:13;97.82;;;64.25;;
76357;SDS011;65185;21.060;105.826;2023-03-21T06:43:41;91.93;;;59.72;;
76357;SDS011;65185;21.060;105.826;2023-03-21T06:46:08;94.93;;;60.53;;
76357;SDS011;65185;21.060;105.826;2023-03-21T06:48:35;95.65;;;61.78;;
76357;SDS011;65185;21.060;105.826;2023-03-21T06:51:03;94.22;;;59.60;;
76357;SDS011;65185;21.060;105.826;2023-03-21T06:53:30;89.45;;;58.45;;
76357;SDS011;65185;21.060;105.826;2023-03-21T06:55:57;88.55;;;55.80;;
76357;SDS011;65185;21.060;105.826;2023-03-21T06:58:23;94.55;;;62.63;;
76357;SDS011;65185;21.060;105.826;2023-03-21T07:00:51;102.97;;;69.20;;
76357;SDS011;65185;21.060;105.826;2023-03-21T07:03:17;98.22;;;63.35;;
76357;SDS011;65185;21.060;105.826;2023-03-21T07:05:44;96.90;;;64.15;;
76357;SDS011;65185;21.060;105.826;2023-03-21T07:08:11;80.97;;;53.22;;
76357;SDS011;65185;21.060;105.826;2023-03-21T07:10:41;89.90;;;57.95;;
76357;SDS011;65185;21.060;105.826;2023-03-21T07:13:09;102.07;;;67.65;;
76357;SDS011;65185;21.060;105.826;2023-03-21T07:15:35;96.18;;;65.57;;
76357;SDS011;65185;21.060;105.826;2023-03-21T07:18:06;110.22;;;72.15;;
76357;SDS011;65185;21.060;105.826;2023-03-21T07:20:34;99.47;;;68.15;;
76357;SDS011;65185;21.060;105.826;2023-03-21T07:23:02;93.05;;;60.95;;
76357;SDS011;65185;21.060;105.826;2023-03-21T07:25:29;104.75;;;67.32;;
76357;SDS011;65185;21.060;105.826;2023-03-21T07:27:56;92.70;;;60.70;;
76357;SDS011;65185;21.060;105.826;2023-03-21T07:30:22;96.85;;;61.30;;
76357;SDS011;65185;21.060;105.826;2023-03-21T07:32:49;98.55;;;62.80;;
76357;SDS011;65185;21.060;105.826;2023-03-21T07:35:20;87.68;;;58.58;;
76357;SDS011;65185;21.060;105.826;2023-03-21T07:37:47;101.20;;;65.78;;
76357;SDS011;65185;21.060;105.826;2023-03-21T07:40:13;94.63;;;61.30;;
76357;SDS011;65185;21.060;105.826;2023-03-21T07:42:40;94.68;;;58.95;;
76357;SDS011;65185;21.060;105.826;2023-03-21T07:45:07;90.05;;;57.22;;
76357;SDS011;65185;21.060;105.826;2023-03-21T07:47:35;89.43;;;58.95;;
76357;SDS011;65185;21.060;105.826;2023-03-21T07:50:02;95.30;;;62.58;;
76357;SDS011;65185;21.060;105.826;2023-03-21T07:52:29;97.28;;;63.15;;
76357;SDS011;65185;21.060;105.826;2023-03-21T07:55:00;95.88;;;62.97;;
76357;SDS011;65185;21.060;105.826;2023-03-21T07:57:27;105.63;;;72.30;;
76357;SDS011;65185;21.060;105.826;2023-03-21T07:59:53;93.80;;;63.15;;
76357;SDS011;65185;21.060;105.826;2023-03-21T08:02:20;88.40;;;59.40;;
76357;SDS011;65185;21.060;105.826;2023-03-21T08:04:46;92.65;;;60.78;;
76357;SDS011;65185;21.060;105.826;2023-03-21T08:07:13;106.45;;;69.70;;
76357;SDS011;65185;21.060;105.826;2023-03-21T08:09:41;105.25;;;66.38;;
76357;SDS011;65185;21.060;105.826;2023-03-21T08:12:08;96.28;;;64.38;;
76357;SDS011;65185;21.060;105.826;2023-03-21T08:14:35;102.95;;;64.43;;
76357;SDS011;65185;21.060;105.826;2023-03-21T08:17:02;91.75;;;61.05;;
76357;SDS011;65185;21.060;105.826;2023-03-21T08:19:29;92.10;;;59.30;;
76357;SDS011;65185;21.060;105.826;2023-03-21T08:21:55;90.80;;;60.88;;
76357;SDS011;65185;21.060;105.826;2023-03-21T08:24:26;89.75;;;61.90;;
76357;SDS011;65185;21.060;105.826;2023-03-21T08:26:53;91.30;;;61.05;;
76357;SDS011;65185;21.060;105.826;2023-03-21T08:29:20;89.43;;;60.35;;
76357;SDS011;65185;21.060;105.826;2023-03-21T08:31:47;86.47;;;58.70;;
76357;SDS011;65185;21.060;105.826;2023-03-21T08:34:13;90.07;;;57.90;;
76357;SDS011;65185;21.060;105.826;2023-03-21T08:36:42;86.95;;;57.08;;
76357;SDS011;65185;21.060;105.826;2023-03-21T08:39:08;86.30;;;58.28;;
76357;SDS011;65185;21.060;105.826;2023-03-21T08:41:35;93.97;;;59.72;;
76357;SDS011;65185;21.060;105.826;2023-03-21T08:44:03;86.95;;;57.55;;
76357;SDS011;65185;21.060;105.826;2023-03-21T08:46:43;93.13;;;61.03;;
76357;SDS011;65185;21.060;105.826;2023-03-21T08:49:09;87.70;;;59.05;;
76357;SDS011;65185;21.060;105.826;2023-03-21T08:51:36;87.43;;;58.10;;
76357;SDS011;65185;21.060;105.826;2023-03-21T08:54:03;91.15;;;62.67;;
76357;SDS011;65185;21.060;105.826;2023-03-21T08:56:29;81.28;;;56.35;;
76357;SDS011;65185;21.060;105.826;2023-03-21T08:58:56;84.93;;;56.65;;
76357;SDS011;65185;21.060;105.826;2023-03-21T09:01:23;85.53;;;56.00;;
76357;SDS011;65185;21.060;105.826;2023-03-21T09:03:50;86.68;;;56.92;;
76357;SDS011;65185;21.060;105.826;2023-03-21T09:06:16;87.70;;;55.35;;
76357;SDS011;65185;21.060;105.826;2023-03-21T09:08:43;90.70;;;58.90;;
76357;SDS011;65185;21.060;105.826;2023-03-21T09:11:10;88.78;;;59.13;;
76357;SDS011;65185;21.060;105.826;2023-03-21T09:13:36;103.40;;;61.10;;
76357;SDS011;65185;21.060;105.826;2023-03-21T09:16:03;93.72;;;60.78;;
76357;SDS011;65185;21.060;105.826;2023-03-21T09:18:30;104.35;;;65.88;;
76357;SDS011;65185;21.060;105.826;2023-03-21T09:21:14;98.63;;;61.58;;
76357;SDS011;65185;21.060;105.826;2023-03-21T09:23:42;93.32;;;60.75;;
76357;SDS011;65185;21.060;105.826;2023-03-21T09:26:09;97.25;;;61.28;;
76357;SDS011;65185;21.060;105.826;2023-03-21T09:28:36;101.47;;;62.30;;
76357;SDS011;65185;21.060;105.826;2023-03-21T09:31:03;96.93;;;62.13;;
76357;SDS011;65185;21.060;105.826;2023-03-21T09:33:32;94.93;;;62.55;;
76357;SDS011;65185;21.060;105.826;2023-03-21T09:35:59;94.47;;;61.65;;
76357;SDS011;65185;21.060;105.826;2023-03-21T09:38:26;96.90;;;62.95;;
76357;SDS011;65185;21.060;105.826;2023-03-21T09:41:08;97.63;;;61.78;;
76357;SDS011;65185;21.060;105.826;2023-03-21T09:43:55;102.18;;;63.15;;
76357;SDS011;65185;21.060;105.826;2023-03-21T09:49:44;96.55;;;59.25;;
76357;SDS011;65185;21.060;105.826;2023-03-21T09:52:29;99.53;;;62.88;;
76357;SDS011;65185;21.060;105.826;2023-03-21T09:55:01;95.50;;;60.40;;
76357;SDS011;65185;21.060;105.826;2023-03-21T09:57:43;99.53;;;60.45;;
76357;SDS011;65185;21.060;105.826;2023-03-21T10:00:20;96.90;;;62.05;;
76357;SDS011;65185;21.060;105.826;2023-03-21T10:03:02;102.43;;;63.67;;
76357;SDS011;65185;21.060;105.826;2023-03-21T10:05:34;99.78;;;63.58;;
76357;SDS011;65185;21.060;105.826;2023-03-21T10:08:37;100.25;;;62.05;;
76357;SDS011;65185;21.060;105.826;2023-03-21T10:11:22;93.88;;;58.55;;
76357;SDS011;65185;21.060;105.826;2023-03-21T10:13:56;103.25;;;63.25;;
76357;SDS011;65185;21.060;105.826;2023-03-21T10:16:35;102.15;;;62.65;;
76357;SDS011;65185;21.060;105.826;2023-03-21T10:19:10;107.28;;;65.40;;
76357;SDS011;65185;21.060;105.826;2023-03-21T10:21:39;104.68;;;63.08;;
76357;SDS011;65185;21.060;105.826;2023-03-21T10:26:44;110.80;;;63.13;;
76357;SDS011;65185;21.060;105.826;2023-03-21T10:29:13;108.97;;;64.75;;
76357;SDS011;65185;21.060;105.826;2023-03-21T10:31:41;108.25;;;63.55;;
76357;SDS011;65185;21.060;105.826;2023-03-21T10:34:16;108.38;;;64.00;;
76357;SDS011;65185;21.060;105.826;2023-03-21T10:36:58;106.55;;;62.72;;
76357;SDS011;65185;21.060;105.826;2023-03-21T10:41:59;101.20;;;60.83;;
76357;SDS011;65185;21.060;105.826;2023-03-21T10:44:32;99.05;;;59.63;;
76357;SDS011;65185;21.060;105.826;2023-03-21T10:47:07;98.70;;;58.63;;
76357;SDS011;65185;21.060;105.826;2023-03-21T10:49:45;105.32;;;63.25;;
76357;SDS011;65185;21.060;105.826;2023-03-21T10:52:13;102.07;;;62.88;;
76357;SDS011;65185;21.060;105.826;2023-03-21T10:54:43;104.25;;;64.43;;
76357;SDS011;65185;21.060;105.826;2023-03-21T10:57:18;109.05;;;63.45;;
76357;SDS011;65185;21.060;105.826;2023-03-21T10:59:52;105.05;;;60.63;;
76357;SDS011;65185;21.060;105.826;2023-03-21T11:02:20;101.82;;;62.75;;
76357;SDS011;65185;21.060;105.826;2023-03-21T11:05:06;97.05;;;60.10;;
76357;SDS011;65185;21.060;105.826;2023-03-21T11:07:42;99.38;;;61.30;;
76357;SDS011;65185;21.060;105.826;2023-03-21T11:10:25;101.15;;;63.55;;
76357;SDS011;65185;21.060;105.826;2023-03-21T11:12:58;96.95;;;56.65;;
76357;SDS011;65185;21.060;105.826;2023-03-21T11:15:31;100.05;;;62.10;;
76357;SDS011;65185;21.060;105.826;2023-03-21T11:18:21;110.47;;;65.30;;
76357;SDS011;65185;21.060;105.826;2023-03-21T11:20:50;94.32;;;59.50;;
76357;SDS011;65185;21.060;105.826;2023-03-21T11:23:24;111.53;;;64.40;;
76357;SDS011;65185;21.060;105.826;2023-03-21T11:25:53;108.15;;;61.88;;
76357;SDS011;65185;21.060;105.826;2023-03-21T11:28:23;107.65;;;62.00;;
76357;SDS011;65185;21.060;105.826;2023-03-21T11:30:58;109.45;;;62.80;;
76357;SDS011;65185;21.060;105.826;2023-03-21T11:33:30;98.32;;;57.75;;
76357;SDS011;65185;21.060;105.826;2023-03-21T11:36:04;112.55;;;63.30;;
76357;SDS011;65185;21.060;105.826;2023-03-21T11:38:37;107.05;;;62.72;;
76357;SDS011;65185;21.060;105.826;2023-03-21T11:41:04;114.57;;;65.43;;
76357;SDS011;65185;21.060;105.826;2023-03-21T11:43:33;117.00;;;65.50;;
76357;SDS011;65185;21.060;105.826;2023-03-21T11:48:50;115.50;;;63.85;;
76357;SDS011;65185;21.060;105.826;2023-03-21T11:54:14;109.18;;;65.43;;
76357;SDS011;65185;21.060;105.826;2023-03-21T11:56:43;109.47;;;65.72;;
76357;SDS011;65185;21.060;105.826;2023-03-21T12:01:54;112.50;;;65.35;;
76357;SDS011;65185;21.060;105.826;2023-03-21T12:04:45;114.75;;;66.05;;
76357;SDS011;65185;21.060;105.826;2023-03-21T12:07:44;109.78;;;63.70;;
76357;SDS011;65185;21.060;105.826;2023-03-21T12:10:39;114.60;;;64.90;;
76357;SDS011;65185;21.060;105.826;2023-03-21T12:16:04;113.30;;;64.30;;
76357;SDS011;65185;21.060;105.826;2023-03-21T12:22:09;116.03;;;64.57;;
76357;SDS011;65185;21.060;105.826;2023-03-21T12:27:39;108.40;;;60.60;;
76357;SDS011;65185;21.060;105.826;2023-03-21T12:33:24;127.03;;;70.55;;
76357;SDS011;65185;21.060;105.826;2023-03-21T12:41:59;132.95;;;71.65;;
76357;SDS011;65185;21.060;105.826;2023-03-21T12:44:33;127.15;;;69.88;;
76357;SDS011;65185;21.060;105.826;2023-03-21T12:47:05;133.48;;;72.13;;
76357;SDS011;65185;21.060;105.826;2023-03-21T12:50:07;120.20;;;66.25;;
76357;SDS011;65185;21.060;105.826;2023-03-21T12:52:44;118.53;;;65.00;;
76357;SDS011;65185;21.060;105.826;2023-03-21T12:55:19;141.15;;;73.75;;
76357;SDS011;65185;21.060;105.826;2023-03-21T12:57:48;135.68;;;71.45;;
76357;SDS011;65185;21.060;105.826;2023-03-21T13:00:31;137.70;;;71.95;;
76357;SDS011;65185;21.060;105.826;2023-03-21T13:05:36;130.20;;;70.63;;
76357;SDS011;65185;21.060;105.826;2023-03-21T13:10:43;125.63;;;69.38;;
76357;SDS011;65185;21.060;105.826;2023-03-21T13:16:16;117.22;;;65.45;;
76357;SDS011;65185;21.060;105.826;2023-03-21T13:27:04;127.85;;;67.97;;
76357;SDS011;65185;21.060;105.826;2023-03-21T13:29:34;138.95;;;74.28;;
76357;SDS011;65185;21.060;105.826;2023-03-21T13:35:12;126.65;;;69.97;;
76357;SDS011;65185;21.060;105.826;2023-03-21T13:38:00;141.93;;;75.28;;
76357;SDS011;65185;21.060;105.826;2023-03-21T13:40:51;127.78;;;70.38;;
76357;SDS011;65185;21.060;105.826;2023-03-21T13:46:09;121.07;;;65.15;;
76357;SDS011;65185;21.060;105.826;2023-03-21T13:48:42;120.65;;;66.90;;
76357;SDS011;65185;21.060;105.826;2023-03-21T13:52:23;121.40;;;65.13;;
76357;SDS011;65185;21.060;105.826;2023-03-21T13:54:16;111.30;;;63.20;;
76357;SDS011;65185;21.060;105.826;2023-03-21T13:59:13;122.18;;;65.32;;
76357;SDS011;65185;21.060;105.826;2023-03-21T14:01:59;121.38;;;68.90;;
76357;SDS011;65185;21.060;105.826;2023-03-21T14:04:30;124.28;;;68.53;;
76357;SDS011;65185;21.060;105.826;2023-03-21T14:09:42;133.38;;;70.72;;
76357;SDS011;65185;21.060;105.826;2023-03-21T14:12:15;123.60;;;64.35;;
76357;SDS011;65185;21.060;105.826;2023-03-21T14:14:45;130.98;;;70.38;;
76357;SDS011;65185;21.060;105.826;2023-03-21T14:17:23;133.18;;;71.43;;
76357;SDS011;65185;21.060;105.826;2023-03-21T14:19:53;138.43;;;72.50;;
76357;SDS011;65185;21.060;105.826;2023-03-21T14:22:21;135.63;;;72.43;;
76357;SDS011;65185;21.060;105.826;2023-03-21T14:24:53;145.07;;;72.43;;
76357;SDS011;65185;21.060;105.826;2023-03-21T14:27:24;142.93;;;73.85;;
76357;SDS011;65185;21.060;105.826;2023-03-21T14:29:55;128.88;;;69.28;;
76357;SDS011;65185;21.060;105.826;2023-03-21T14:32:24;147.23;;;76.90;;
76357;SDS011;65185;21.060;105.826;2023-03-21T14:34:55;144.93;;;75.25;;
76357;SDS011;65185;21.060;105.826;2023-03-21T14:37:33;136.30;;;74.10;;
76357;SDS011;65185;21.060;105.826;2023-03-21T14:40:05;137.73;;;72.68;;
76357;SDS011;65185;21.060;105.826;2023-03-21T14:42:45;146.73;;;75.55;;
76357;SDS011;65185;21.060;105.826;2023-03-21T14:45:16;152.27;;;77.35;;
76357;SDS011;65185;21.060;105.826;2023-03-21T14:47:59;149.77;;;76.35;;
76357;SDS011;65185;21.060;105.826;2023-03-21T14:53:15;129.07;;;69.32;;
76357;SDS011;65185;21.060;105.826;2023-03-21T14:55:56;140.40;;;70.50;;
76357;SDS011;65185;21.060;105.826;2023-03-21T14:58:29;146.50;;;77.15;;
76357;SDS011;65185;21.060;105.826;2023-03-21T15:00:57;139.13;;;72.88;;
76357;SDS011;65185;21.060;105.826;2023-03-21T15:03:28;135.15;;;71.85;;
76357;SDS011;65185;21.060;105.826;2023-03-21T15:05:56;148.05;;;73.95;;
76357;SDS011;65185;21.060;105.826;2023-03-21T15:08:25;148.18;;;74.97;;
76357;SDS011;65185;21.060;105.826;2023-03-21T15:11:00;142.63;;;70.78;;
76357;SDS011;65185;21.060;105.826;2023-03-21T15:13:49;166.80;;;77.15;;
76357;SDS011;65185;21.060;105.826;2023-03-21T15:16:19;143.40;;;70.32;;
76357;SDS011;65185;21.060;105.826;2023-03-21T15:18:46;154.93;;;73.65;;
76357;SDS011;65185;21.060;105.826;2023-03-21T15:21:19;153.75;;;72.03;;
76357;SDS011;65185;21.060;105.826;2023-03-21T15:23:58;150.10;;;69.93;;
76357;SDS011;65185;21.060;105.826;2023-03-21T15:26:29;151.07;;;73.53;;
76357;SDS011;65185;21.060;105.826;2023-03-21T15:28:57;175.90;;;81.18;;
76357;SDS011;65185;21.060;105.826;2023-03-21T15:31:28;174.90;;;81.45;;
76357;SDS011;65185;21.060;105.826;2023-03-21T15:33:59;183.13;;;83.35;;
76357;SDS011;65185;21.060;105.826;2023-03-21T15:36:27;176.02;;;80.00;;
76357;SDS011;65185;21.060;105.826;2023-03-21T15:39:00;145.57;;;72.22;;
76357;SDS011;65185;21.060;105.826;2023-03-21T15:41:30;154.52;;;77.72;;
76357;SDS011;65185;21.060;105.826;2023-03-21T15:49:19;146.57;;;77.43;;
76357;SDS011;65185;21.060;105.826;2023-03-21T15:52:01;142.43;;;76.55;;
76357;SDS011;65185;21.060;105.826;2023-03-21T15:54:30;140.85;;;77.65;;
76357;SDS011;65185;21.060;105.826;2023-03-21T15:59:47;124.38;;;73.00;;